createdAt,value
2022-08-30T00:02:20.943Z,19.37
2022-08-30T00:04:48.278Z,19.26
2022-08-30T00:07:15.340Z,19.29
2022-08-30T00:09:42.337Z,19.30
2022-08-30T00:12:09.585Z,19.24
2022-08-30T00:14:36.440Z,19.17
2022-08-30T00:17:03.506Z,19.22
2022-08-30T00:19:30.204Z,19.25
2022-08-30T00:21:57.013Z,19.16
2022-08-30T00:24:23.719Z,19.16
2022-08-30T00:26:50.566Z,19.22
2022-08-30T00:29:17.329Z,19.11
2022-08-30T00:31:44.271Z,19.09
2022-08-30T00:34:11.066Z,19.15
2022-08-30T00:36:37.858Z,19.04
2022-08-30T00:39:05.531Z,18.96
2022-08-30T00:41:32.355Z,19.06
2022-08-30T00:44:00.848Z,18.97
2022-08-30T00:46:28.290Z,18.96
2022-08-30T00:48:56.415Z,18.95
2022-08-30T00:51:24.175Z,18.85
2022-08-30T00:53:57.007Z,18.85
2022-08-30T00:56:25.898Z,18.73
2022-08-30T00:58:57.350Z,18.65
2022-08-30T01:01:25.492Z,18.58
2022-08-30T01:03:53.548Z,18.42
2022-08-30T01:06:20.957Z,18.50
2022-08-30T01:08:48.478Z,18.47
2022-08-30T01:11:20.295Z,18.45
2022-08-30T01:13:50.497Z,18.48
2022-08-30T01:16:18.442Z,18.38
2022-08-30T01:18:45.693Z,18.47
2022-08-30T01:21:46.405Z,18.47
2022-08-30T01:24:14.371Z,18.57
2022-08-30T01:26:41.279Z,18.74
2022-08-30T01:29:13.015Z,18.82
2022-08-30T01:31:39.973Z,18.89
2022-08-30T01:34:08.140Z,18.95
2022-08-30T01:36:44.736Z,18.97
2022-08-30T01:39:15.791Z,18.95
2022-08-30T01:41:43.589Z,18.92
2022-08-30T01:44:12.198Z,18.91
2022-08-30T01:46:45.628Z,18.91
2022-08-30T01:49:16.785Z,18.88
2022-08-30T01:51:43.735Z,18.84
2022-08-30T01:54:10.829Z,19.01
2022-08-30T01:56:37.945Z,19.04
2022-08-30T01:59:06.049Z,19.01
2022-08-30T02:01:36.984Z,19.10
2022-08-30T02:04:05.205Z,19.18
2022-08-30T02:06:32.365Z,19.11
2022-08-30T02:08:59.517Z,19.15
2022-08-30T02:11:26.816Z,18.93
2022-08-30T02:13:53.789Z,18.94
2022-08-30T02:16:23.187Z,18.97
2022-08-30T02:18:51.605Z,19.20
2022-08-30T02:21:18.787Z,19.22
2022-08-30T02:23:45.808Z,19.24
2022-08-30T02:26:13.845Z,19.28
2022-08-30T02:28:42.905Z,19.40
2022-08-30T02:31:20.443Z,19.47
2022-08-30T02:33:50.323Z,19.56
2022-08-30T02:36:18.294Z,19.51
2022-08-30T02:38:45.269Z,19.57
2022-08-30T02:41:12.165Z,19.57
2022-08-30T02:43:38.958Z,19.61
2022-08-30T02:46:06.110Z,19.57
2022-08-30T02:48:32.887Z,19.55
2022-08-30T02:51:05.973Z,19.62
2022-08-30T02:53:36.969Z,19.69
2022-08-30T02:56:04.356Z,19.71
2022-08-30T02:58:31.563Z,19.77
2022-08-30T03:00:58.300Z,19.73
2022-08-30T03:03:25.755Z,19.80
2022-08-30T03:05:52.555Z,19.72
2022-08-30T03:08:19.361Z,19.79
2022-08-30T03:10:46.237Z,19.84
2022-08-30T03:13:13.058Z,19.81
2022-08-30T03:15:40.585Z,19.80
2022-08-30T03:18:07.919Z,19.72
2022-08-30T03:20:37.441Z,19.76
2022-08-30T03:23:04.837Z,19.78
2022-08-30T03:25:31.634Z,19.79
2022-08-30T03:27:58.421Z,19.80
2022-08-30T03:30:25.454Z,19.79
2022-08-30T03:32:52.684Z,19.76
2022-08-30T03:35:20.090Z,19.74
2022-08-30T03:37:47.359Z,19.71
2022-08-30T03:40:17.263Z,19.74
2022-08-30T03:42:46.794Z,19.79
2022-08-30T03:45:16.576Z,19.83
2022-08-30T03:47:44.184Z,19.80
2022-08-30T03:50:12.461Z,19.74
2022-08-30T03:52:39.165Z,19.69
2022-08-30T03:55:06.909Z,19.64
2022-08-30T03:57:33.871Z,19.61
2022-08-30T04:00:05.187Z,19.66
2022-08-30T04:02:38.539Z,19.61
2022-08-30T04:05:05.907Z,19.50
2022-08-30T04:07:32.682Z,19.29
2022-08-30T04:09:59.623Z,19.13
2022-08-30T04:12:26.984Z,19.14
2022-08-30T04:14:53.726Z,19.09
2022-08-30T04:17:20.473Z,18.81
2022-08-30T04:19:47.248Z,18.85
2022-08-30T04:22:13.994Z,18.89
2022-08-30T04:24:41.666Z,18.88
2022-08-30T04:27:09.040Z,18.80
2022-08-30T04:29:35.834Z,18.87
2022-08-30T04:32:02.925Z,18.88
2022-08-30T04:34:29.699Z,18.90
2022-08-30T04:36:56.421Z,18.86
2022-08-30T04:39:23.630Z,18.92
2022-08-30T04:41:50.341Z,18.99
2022-08-30T04:44:19.383Z,19.10
2022-08-30T04:46:46.916Z,19.24
2022-08-30T04:49:13.697Z,19.36
2022-08-30T04:51:40.824Z,19.45
2022-08-30T04:54:07.506Z,19.51
2022-08-30T04:56:34.854Z,19.64
2022-08-30T04:59:03.730Z,19.67
2022-08-30T05:01:37.197Z,19.70
2022-08-30T05:04:13.394Z,19.78
2022-08-30T05:06:40.217Z,19.79
2022-08-30T05:09:07.056Z,19.92
2022-08-30T05:11:33.773Z,20.08
2022-08-30T05:14:00.686Z,20.26
2022-08-30T05:16:27.750Z,20.40
2022-08-30T05:18:54.765Z,20.63
2022-08-30T05:21:26.647Z,20.71
2022-08-30T05:23:56.026Z,20.78
2022-08-30T05:26:25.868Z,20.86
2022-08-30T05:28:52.709Z,21.02
2022-08-30T05:31:26.152Z,20.93
2022-08-30T05:33:54.562Z,21.08
2022-08-30T05:36:26.298Z,21.05
2022-08-30T05:38:54.420Z,21.03
2022-08-30T05:41:22.371Z,21.21
2022-08-30T05:43:49.333Z,21.21
2022-08-30T05:46:19.647Z,21.31
2022-08-30T05:48:47.470Z,21.36
2022-08-30T05:51:18.281Z,21.45
2022-08-30T05:53:46.394Z,21.54
2022-08-30T05:56:16.094Z,21.59
2022-08-30T05:58:43.620Z,21.66
2022-08-30T06:01:25.771Z,21.69
2022-08-30T06:03:55.156Z,21.82
2022-08-30T06:06:22.287Z,21.92
2022-08-30T06:08:49.570Z,21.94
2022-08-30T06:11:22.414Z,21.97
2022-08-30T06:13:50.677Z,21.94
2022-08-30T06:16:20.010Z,22.04
2022-08-30T06:18:47.842Z,21.99
2022-08-30T06:21:25.400Z,22.02
2022-08-30T06:23:52.969Z,22.12
2022-08-30T06:26:19.754Z,22.27
2022-08-30T06:28:46.682Z,22.44
2022-08-30T06:31:16.850Z,22.63
2022-08-30T06:33:44.765Z,22.66
2022-08-30T06:36:16.116Z,22.77
2022-08-30T06:38:42.837Z,22.77
2022-08-30T06:41:12.346Z,22.92
2022-08-30T06:43:38.941Z,22.98
2022-08-30T06:46:08.846Z,23.02
2022-08-30T06:48:35.605Z,23.05
2022-08-30T06:51:02.471Z,22.91
2022-08-30T06:53:31.010Z,22.93
2022-08-30T06:56:16.472Z,22.83
2022-08-30T06:58:44.743Z,22.64
2022-08-30T07:01:14.110Z,22.56
2022-08-30T07:03:40.909Z,22.43
2022-08-30T07:06:08.778Z,22.29
2022-08-30T07:08:36.457Z,22.34
2022-08-30T07:11:05.411Z,22.62
2022-08-30T07:13:32.682Z,22.79
2022-08-30T07:15:59.614Z,22.98
2022-08-30T07:18:45.317Z,23.20
2022-08-30T07:21:15.335Z,23.37
2022-08-30T07:23:48.321Z,23.52
2022-08-30T07:26:21.927Z,23.69
2022-08-30T07:28:49.001Z,23.69
2022-08-30T07:31:22.806Z,23.80
2022-08-30T07:33:50.952Z,23.84
2022-08-30T07:36:18.235Z,23.72
2022-08-30T07:38:46.662Z,23.74
2022-08-30T07:41:19.683Z,23.81
2022-08-30T07:43:47.057Z,23.77
2022-08-30T07:46:13.887Z,23.51
2022-08-30T07:48:41.217Z,23.43
2022-08-30T07:51:13.123Z,23.30
2022-08-30T07:53:39.976Z,23.22
2022-08-30T07:56:06.943Z,23.27
2022-08-30T07:58:34.132Z,23.27
2022-08-30T08:01:02.038Z,23.27
2022-08-30T08:03:29.958Z,23.25
2022-08-30T08:05:57.055Z,23.31
2022-08-30T08:08:23.884Z,23.41
2022-08-30T08:10:50.579Z,23.50
2022-08-30T08:13:17.618Z,23.56
2022-08-30T08:15:44.441Z,23.52
2022-08-30T08:18:11.333Z,23.52
2022-08-30T08:20:38.161Z,23.57
2022-08-30T08:23:04.962Z,23.59
2022-08-30T08:25:31.970Z,23.55
2022-08-30T08:27:59.283Z,23.59
2022-08-30T08:30:26.053Z,23.66
2022-08-30T08:32:52.975Z,23.52
2022-08-30T08:35:20.172Z,23.54
2022-08-30T08:37:46.887Z,23.69
2022-08-30T08:40:19.158Z,23.83
2022-08-30T08:42:59.306Z,23.83
2022-08-30T08:45:35.115Z,23.81
2022-08-30T08:48:03.205Z,23.87
2022-08-30T08:50:31.364Z,23.91
2022-08-30T08:53:46.224Z,23.93
2022-08-30T08:56:16.500Z,23.90
2022-08-30T08:58:48.817Z,24.21
2022-08-30T09:01:19.526Z,24.34
2022-08-30T09:03:47.450Z,24.39
2022-08-30T09:06:28.581Z,24.39
2022-08-30T09:08:55.762Z,24.38
2022-08-30T09:11:28.759Z,24.54
2022-08-30T09:13:55.896Z,24.63
2022-08-30T09:16:47.505Z,24.75
2022-08-30T09:19:36.918Z,24.81
2022-08-30T09:22:16.031Z,24.76
2022-08-30T09:24:50.199Z,24.86
2022-08-30T09:27:18.999Z,24.87
2022-08-30T09:30:11.267Z,24.95
2022-08-30T09:33:02.251Z,25.00
2022-08-30T09:35:37.085Z,25.01
2022-08-30T09:38:07.253Z,25.13
2022-08-30T09:40:37.466Z,25.11
2022-08-30T09:43:16.395Z,25.14
2022-08-30T09:45:47.445Z,25.16
2022-08-30T09:48:41.521Z,25.17
2022-08-30T09:51:11.657Z,25.21
2022-08-30T09:54:14.436Z,25.31
2022-08-30T09:56:59.272Z,25.34
2022-08-30T09:59:31.799Z,25.41
2022-08-30T10:02:30.264Z,25.47
2022-08-30T10:05:12.151Z,25.46
2022-08-30T10:08:13.058Z,25.46
2022-08-30T10:10:51.362Z,25.45
2022-08-30T10:14:00.852Z,25.48
2022-08-30T10:17:05.090Z,25.49
2022-08-30T10:20:02.525Z,25.47
2022-08-30T10:22:37.838Z,25.47
2022-08-30T10:25:16.447Z,25.55
2022-08-30T10:27:50.076Z,25.59
2022-08-30T10:30:18.812Z,25.62
2022-08-30T10:33:06.770Z,25.70
2022-08-30T10:35:39.201Z,25.85
2022-08-30T10:38:11.859Z,25.88
2022-08-30T10:41:03.078Z,25.90
2022-08-30T10:44:00.437Z,25.89
2022-08-30T10:46:39.082Z,25.99
2022-08-30T10:49:14.569Z,26.07
2022-08-30T10:52:34.275Z,26.18
2022-08-30T10:55:06.129Z,26.36
2022-08-30T10:57:32.882Z,26.48
2022-08-30T11:00:11.083Z,26.56
2022-08-30T11:03:23.905Z,26.60
2022-08-30T11:06:12.328Z,26.69
2022-08-30T11:08:51.675Z,26.80
2022-08-30T11:11:56.826Z,26.79
2022-08-30T11:14:25.361Z,26.87
2022-08-30T11:16:54.972Z,27.00
2022-08-30T11:19:24.697Z,27.06
2022-08-30T11:22:08.125Z,27.14
2022-08-30T11:25:01.766Z,27.28
2022-08-30T11:27:52.512Z,27.37
2022-08-30T11:30:26.739Z,27.50
2022-08-30T11:32:59.624Z,27.56
2022-08-30T11:35:48.376Z,27.66
2022-08-30T11:38:28.350Z,27.80
2022-08-30T11:40:55.121Z,27.65
2022-08-30T11:43:33.923Z,27.72
2022-08-30T11:46:27.146Z,27.75
2022-08-30T11:49:15.605Z,27.66
2022-08-30T11:52:28.490Z,27.54
2022-08-30T11:55:23.272Z,27.45
2022-08-30T11:58:26.080Z,27.44
2022-08-30T12:01:51.876Z,27.41
2022-08-30T12:04:17.370Z,27.32
2022-08-30T12:06:46.515Z,27.27
2022-08-30T12:09:33.498Z,27.20
2022-08-30T12:12:12.428Z,27.18
2022-08-30T12:14:42.311Z,27.07
2022-08-30T12:17:50.943Z,26.94
2022-08-30T12:20:23.891Z,26.96
2022-08-30T12:22:52.407Z,26.87
2022-08-30T12:25:25.664Z,26.84
2022-08-30T12:28:08.728Z,26.85
2022-08-30T12:30:39.706Z,26.81
2022-08-30T12:33:12.051Z,26.75
2022-08-30T12:35:39.513Z,26.73
2022-08-30T12:38:14.464Z,26.72
2022-08-30T12:40:49.974Z,26.73
2022-08-30T12:43:27.829Z,26.71
2022-08-30T12:46:12.255Z,26.65
2022-08-30T12:48:41.212Z,26.61
2022-08-30T12:51:10.901Z,26.58
2022-08-30T12:53:46.246Z,26.53
2022-08-30T12:56:30.402Z,26.56
2022-08-30T12:59:05.111Z,26.56
2022-08-30T13:01:37.289Z,26.53
2022-08-30T13:04:21.621Z,26.57
2022-08-30T13:06:59.410Z,26.53
2022-08-30T13:09:27.075Z,26.64
2022-08-30T13:11:54.874Z,26.59
2022-08-30T13:14:31.360Z,26.59
2022-08-30T13:17:12.181Z,26.71
2022-08-30T13:19:41.925Z,26.74
2022-08-30T13:23:10.467Z,26.71
2022-08-30T13:25:39.627Z,26.69
2022-08-30T13:28:08.249Z,26.74
2022-08-30T13:30:35.327Z,26.76
2022-08-30T13:33:02.383Z,26.74
2022-08-30T13:35:31.204Z,26.84
2022-08-30T13:37:59.838Z,26.84
2022-08-30T13:40:26.552Z,26.71
2022-08-30T13:42:53.795Z,26.76
2022-08-30T13:48:10.409Z,26.90
2022-08-30T13:50:37.186Z,26.86
2022-08-30T13:53:04.023Z,26.91
2022-08-30T13:55:30.751Z,26.88
2022-08-30T13:57:58.111Z,26.84
2022-08-30T14:00:26.086Z,26.82
2022-08-30T14:02:57.549Z,26.81
2022-08-30T14:11:12.905Z,26.88
2022-08-30T14:16:31.555Z,26.94
2022-08-30T14:19:00.248Z,26.87
2022-08-30T14:21:27.489Z,26.95
2022-08-30T14:23:56.656Z,26.93
2022-08-30T14:26:33.047Z,26.97
2022-08-30T14:29:09.216Z,26.87
2022-08-30T14:31:37.446Z,26.93
2022-08-30T14:34:05.129Z,26.98
2022-08-30T14:36:34.071Z,26.98
2022-08-30T14:39:01.841Z,26.93
2022-08-30T14:41:28.878Z,26.94
2022-08-30T14:43:55.934Z,26.95
2022-08-30T14:46:25.722Z,27.01
2022-08-30T14:48:54.172Z,27.07
2022-08-30T14:51:23.233Z,27.07
2022-08-30T14:53:53.307Z,27.09
2022-08-30T14:56:22.011Z,27.08
2022-08-30T14:58:51.139Z,27.14
2022-08-30T15:01:18.886Z,27.09
2022-08-30T15:03:45.852Z,27.05
2022-08-30T15:06:13.156Z,27.02
2022-08-30T15:08:40.190Z,26.99
2022-08-30T15:11:12.035Z,26.94
2022-08-30T15:13:40.381Z,26.96
2022-08-30T15:16:20.268Z,27.04
2022-08-30T15:18:47.473Z,27.04
2022-08-30T15:21:14.365Z,27.02
2022-08-30T15:23:41.893Z,27.01
2022-08-30T15:26:09.439Z,26.99
2022-08-30T15:28:36.833Z,26.89
2022-08-30T15:31:08.653Z,26.83
2022-08-30T15:33:37.961Z,26.85
2022-08-30T15:36:05.573Z,26.90
2022-08-30T15:38:35.853Z,26.85
2022-08-30T15:41:05.637Z,26.87
2022-08-30T15:43:32.430Z,26.86
2022-08-30T15:46:37.621Z,26.81
2022-08-30T15:49:09.217Z,26.74
2022-08-30T15:51:41.408Z,26.75
2022-08-30T15:54:11.698Z,26.76
2022-08-30T15:56:39.864Z,26.73
2022-08-30T15:59:09.449Z,26.68
2022-08-30T16:01:36.807Z,26.68
2022-08-30T16:04:04.464Z,26.66
2022-08-30T16:06:35.214Z,26.65
2022-08-30T16:09:03.556Z,26.61
2022-08-30T16:11:31.680Z,26.64
2022-08-30T16:13:58.999Z,26.59
2022-08-30T16:16:26.698Z,26.51
2022-08-30T16:18:55.128Z,26.51
2022-08-30T16:21:30.717Z,26.45
2022-08-30T16:24:00.058Z,26.46
2022-08-30T16:26:28.295Z,26.48
2022-08-30T16:28:56.059Z,26.46
2022-08-30T16:31:24.347Z,26.37
2022-08-30T16:33:53.139Z,26.35
2022-08-30T16:36:22.544Z,26.31
2022-08-30T16:38:53.518Z,26.29
2022-08-30T16:41:23.451Z,26.22
2022-08-30T16:43:53.626Z,26.13
2022-08-30T16:46:22.942Z,26.12
2022-08-30T16:48:50.284Z,26.11
2022-08-30T16:51:20.932Z,26.06
2022-08-30T16:53:48.228Z,26.03
2022-08-30T16:56:20.581Z,25.96
2022-08-30T16:58:48.617Z,25.93
2022-08-30T17:01:19.805Z,25.89
2022-08-30T17:03:50.081Z,25.89
2022-08-30T17:06:17.890Z,25.76
2022-08-30T17:08:47.411Z,25.69
2022-08-30T17:11:14.696Z,25.65
2022-08-30T17:13:41.554Z,25.63
2022-08-30T17:16:08.687Z,25.63
2022-08-30T17:18:35.960Z,25.64
2022-08-30T17:21:03.913Z,25.58
2022-08-30T17:23:34.529Z,25.56
2022-08-30T17:26:02.131Z,25.50
2022-08-30T17:28:29.827Z,25.36
2022-08-30T17:30:56.743Z,25.28
2022-08-30T17:33:23.581Z,25.19
2022-08-30T17:35:53.400Z,25.10
2022-08-30T17:38:20.679Z,25.00
2022-08-30T17:40:47.924Z,24.93
2022-08-30T17:43:14.841Z,24.84
2022-08-30T17:45:41.563Z,24.70
2022-08-30T17:48:08.412Z,24.63
2022-08-30T17:50:35.405Z,24.54
2022-08-30T17:53:02.891Z,24.50
2022-08-30T17:55:30.825Z,24.44
2022-08-30T17:57:57.764Z,24.37
2022-08-30T18:00:27.353Z,24.29
2022-08-30T18:02:54.143Z,24.23
2022-08-30T18:08:07.673Z,24.02
2022-08-30T18:10:36.451Z,24.02
2022-08-30T18:13:03.758Z,23.97
2022-08-30T18:15:31.684Z,23.93
2022-08-30T18:17:58.539Z,23.83
2022-08-30T18:20:26.476Z,23.72
2022-08-30T18:22:53.587Z,23.71
2022-08-30T18:25:20.413Z,23.62
2022-08-30T18:27:57.147Z,23.49
2022-08-30T18:30:31.199Z,23.36
2022-08-30T18:33:00.930Z,23.27
2022-08-30T18:35:27.851Z,23.01
2022-08-30T18:37:54.589Z,22.91
2022-08-30T18:40:21.501Z,22.68
2022-08-30T18:42:48.314Z,22.55
2022-08-30T18:48:02.345Z,22.38
2022-08-30T18:50:30.272Z,22.35
2022-08-30T18:52:57.559Z,22.25
2022-08-30T18:57:54.010Z,22.14
2022-08-30T19:00:21.160Z,21.94
2022-08-30T19:02:48.016Z,21.78
2022-08-30T19:05:17.122Z,21.78
2022-08-30T19:07:44.110Z,21.71
2022-08-30T19:10:12.379Z,21.57
2022-08-30T19:12:39.957Z,21.47
2022-08-30T19:15:10.854Z,21.33
2022-08-30T19:17:40.929Z,21.23
2022-08-30T19:20:10.022Z,21.20
2022-08-30T19:23:05.803Z,21.14
2022-08-30T19:25:24.751Z,21.11
2022-08-30T19:27:52.147Z,20.93
2022-08-30T19:30:27.420Z,20.92
2022-08-30T19:32:56.413Z,20.85
2022-08-30T19:35:23.127Z,20.78
2022-08-30T19:37:51.124Z,20.87
2022-08-30T19:40:19.283Z,20.97
2022-08-30T19:42:46.479Z,20.94
2022-08-30T19:45:17.685Z,20.93
2022-08-30T19:47:45.831Z,20.73
2022-08-30T19:50:15.895Z,20.66
2022-08-30T19:52:42.592Z,20.61
2022-08-30T19:55:11.879Z,20.55
2022-08-30T19:57:38.732Z,20.43
2022-08-30T20:00:09.236Z,20.36
2022-08-30T20:02:41.859Z,20.25
2022-08-30T20:05:09.727Z,20.34
2022-08-30T20:07:37.880Z,20.31
2022-08-30T20:10:07.819Z,20.23
2022-08-30T20:12:35.480Z,20.14
2022-08-30T20:15:09.297Z,20.06
2022-08-30T20:18:02.102Z,20.11
2022-08-30T20:20:24.052Z,20.20
2022-08-30T20:22:54.289Z,20.40
2022-08-30T20:24:26.809Z,24.16
2022-08-30T20:24:29.463Z,22.41
2022-08-30T20:25:22.265Z,20.55
2022-08-30T20:27:49.330Z,20.48
2022-08-30T20:30:18.623Z,20.55
2022-08-30T20:32:46.864Z,20.52
2022-08-30T20:35:15.894Z,20.48
2022-08-30T20:37:44.500Z,20.46
2022-08-30T20:40:15.524Z,20.39
2022-08-30T20:42:46.503Z,20.31
2022-08-30T20:45:16.542Z,20.25
2022-08-30T20:47:43.679Z,20.11
2022-08-30T20:50:13.900Z,19.96
2022-08-30T20:52:41.647Z,19.94
2022-08-30T20:55:10.076Z,19.88
2022-08-30T20:57:37.437Z,19.76
2022-08-30T21:00:10.912Z,19.55
2022-08-30T21:02:46.405Z,19.40
2022-08-30T21:05:16.318Z,19.25
2022-08-30T21:07:45.624Z,19.21
2022-08-30T21:10:13.996Z,19.26
2022-08-30T21:12:42.808Z,19.24
2022-08-30T21:15:33.801Z,19.16
2022-08-30T21:17:56.851Z,19.15
2022-08-30T21:20:23.522Z,19.07
2022-08-30T21:22:50.300Z,19.16
2022-08-30T21:25:17.292Z,19.02
2022-08-30T21:27:44.189Z,19.03
2022-08-30T21:30:17.976Z,19.12
2022-08-30T21:32:44.856Z,19.15
2022-08-30T21:35:30.051Z,19.08
2022-08-30T21:37:56.836Z,18.95
2022-08-30T21:40:23.565Z,18.71
2022-08-30T21:42:50.297Z,18.75
2022-08-30T21:45:17.112Z,18.69
2022-08-30T21:47:44.014Z,18.71
2022-08-30T21:50:11.970Z,18.69
2022-08-30T21:52:38.864Z,18.67
2022-08-30T21:55:05.891Z,18.71
2022-08-30T21:57:32.956Z,18.71
2022-08-30T21:59:59.853Z,18.69
2022-08-30T22:02:27.225Z,18.58
2022-08-30T22:04:54.536Z,18.49
2022-08-30T22:07:21.214Z,18.53
2022-08-30T22:09:48.049Z,18.48
2022-08-30T22:12:14.832Z,18.57
2022-08-30T22:14:41.620Z,18.63
2022-08-30T22:17:08.418Z,18.49
2022-08-30T22:19:35.147Z,18.62
2022-08-30T22:22:02.007Z,18.51
2022-08-30T22:24:32.394Z,18.35
2022-08-30T22:27:01.515Z,18.31
2022-08-30T22:29:30.117Z,18.53
2022-08-30T22:31:56.928Z,18.67
2022-08-30T22:34:23.790Z,18.76
2022-08-30T22:36:50.893Z,18.88
2022-08-30T22:39:18.243Z,18.93
2022-08-30T22:41:45.160Z,18.99
2022-08-30T22:44:12.158Z,19.01
2022-08-30T22:46:39.520Z,19.01
2022-08-30T22:49:09.144Z,19.02
2022-08-30T22:51:37.028Z,18.83
2022-08-30T22:54:06.943Z,18.81
2022-08-30T22:56:35.671Z,18.69
2022-08-30T22:59:02.922Z,18.55
2022-08-30T23:01:34.043Z,18.51
2022-08-30T23:04:01.578Z,18.46
2022-08-30T23:06:29.493Z,18.39
2022-08-30T23:08:57.207Z,18.26
2022-08-30T23:11:24.118Z,18.22
2022-08-30T23:13:50.938Z,18.17
2022-08-30T23:16:18.701Z,18.08
2022-08-30T23:18:46.712Z,18.07
2022-08-30T23:21:26.218Z,17.91
2022-08-30T23:24:14.018Z,17.96
2022-08-30T23:27:01.315Z,17.97
2022-08-30T23:29:49.119Z,17.96
2022-08-30T23:32:34.448Z,17.96
2022-08-30T23:35:19.857Z,17.93
2022-08-30T23:38:10.262Z,17.89
2022-08-30T23:40:55.535Z,17.95
2022-08-30T23:43:41.185Z,17.90
2022-08-30T23:46:26.693Z,17.95
2022-08-30T23:49:12.168Z,17.85
2022-08-30T23:51:57.524Z,17.96
2022-08-30T23:54:43.920Z,18.03
2022-08-30T23:57:29.169Z,17.99
